Time;durP1;ratioP1;P1;durP2;ratioP2;P2;SDS_P1;SDS_P2;PMS_P1;PMS_P2;Temp;Humidity;BMP_temperature;BMP_pressure;BME280_temperature;BME280_humidity;BME280_pressure;Samples;Min_cycle;Max_cycle;Signal;HPM_P1;HPM_P2
2023/10/23 00:01:42;;;;;;;1.58;0.70;;;23.20;34.50;;;;;;5049345;28;20522;-75
2023/10/23 00:04:10;;;;;;;0.98;0.70;;;23.30;34.60;;;;;;5050304;28;20029;-76
2023/10/23 00:06:38;;;;;;;4.28;0.70;;;23.50;34.80;;;;;;5051389;28;20017;-79
2023/10/23 00:09:05;;;;;;;1.33;0.47;;;23.80;34.30;;;;;;5038477;28;20047;-76
2023/10/23 00:11:32;;;;;;;1.10;0.50;;;23.80;33.40;;;;;;5048826;28;20025;-76
2023/10/23 00:14:00;;;;;;;1.48;0.82;;;23.90;33.80;;;;;;5050454;28;20032;-77
2023/10/23 00:16:28;;;;;;;1.70;0.70;;;24.20;33.50;;;;;;5038659;28;20030;-76
2023/10/23 00:18:55;;;;;;;2.38;0.60;;;24.30;33.60;;;;;;5058600;28;20067;-75
2023/10/23 00:21:22;;;;;;;1.95;0.63;;;24.40;32.40;;;;;;5050651;28;20033;-76
2023/10/23 00:23:50;;;;;;;2.47;0.68;;;24.30;32.40;;;;;;5043124;28;20078;-75
2023/10/23 00:26:18;;;;;;;1.63;0.70;;;24.30;32.10;;;;;;5043485;28;20036;-82
2023/10/23 00:28:45;;;;;;;1.95;0.60;;;24.20;32.40;;;;;;5044268;28;20047;-76
2023/10/23 00:31:12;;;;;;;1.00;0.60;;;24.20;32.10;;;;;;5039262;28;20034;-79
2023/10/23 00:33:40;;;;;;;1.38;0.60;;;24.30;32.50;;;;;;5059992;28;20081;-79
2023/10/23 00:36:08;;;;;;;2.58;0.60;;;24.40;31.40;;;;;;5053967;28;20025;-81
2023/10/23 00:38:35;;;;;;;2.20;0.68;;;24.30;30.80;;;;;;5050433;28;20017;-76
2023/10/23 00:41:02;;;;;;;1.02;0.55;;;24.30;31.30;;;;;;5053706;28;20033;-76
2023/10/23 00:43:31;;;;;;;1.92;0.80;;;24.20;31.10;;;;;;5059459;28;20075;-76
2023/10/23 00:46:01;;;;;;;3.13;0.70;;;24.20;31.70;;;;;;5043705;28;20063;-76
2023/10/23 00:48:29;;;;;;;4.05;0.93;;;24.30;32.10;;;;;;5042718;28;20080;-76
2023/10/23 00:50:58;;;;;;;4.00;0.75;;;24.40;31.60;;;;;;5039102;28;20060;-77
2023/10/23 00:53:29;;;;;;;1.40;0.70;;;24.30;31.40;;;;;;5045688;28;20040;-78
2023/10/23 00:55:58;;;;;;;3.63;0.70;;;24.60;32.40;;;;;;5043733;28;20033;-77
2023/10/23 00:58:26;;;;;;;2.40;0.70;;;24.80;31.60;;;;;;5046161;28;20021;-77
2023/10/23 01:00:55;;;;;;;3.40;0.65;;;25.00;31.40;;;;;;5043970;28;20025;-77
2023/10/23 01:03:23;;;;;;;2.25;0.60;;;25.20;31.70;;;;;;5041798;28;20051;-76
2023/10/23 01:05:50;;;;;;;1.83;0.60;;;25.20;30.20;;;;;;5049058;28;20036;-78
2023/10/23 01:08:18;;;;;;;2.20;0.80;;;25.20;29.90;;;;;;5046219;28;20025;-80
2023/10/23 01:10:46;;;;;;;1.27;0.75;;;25.20;30.30;;;;;;5055019;28;20029;-76
2023/10/23 01:13:15;;;;;;;0.93;0.70;;;25.30;30.20;;;;;;5053679;28;20032;-79
2023/10/23 01:15:42;;;;;;;3.88;0.90;;;25.20;30.50;;;;;;5056977;28;20029;-76
2023/10/23 01:18:09;;;;;;;1.70;0.50;;;25.20;30.40;;;;;;5055597;28;20029;-78
2023/10/23 01:20:37;;;;;;;3.72;0.80;;;25.40;31.30;;;;;;5055981;28;20062;-78
2023/10/23 01:23:04;;;;;;;1.38;0.68;;;25.50;30.00;;;;;;5054618;28;20061;-76
2023/10/23 01:25:31;;;;;;;3.60;0.80;;;25.60;30.70;;;;;;5045743;28;20087;-76
2023/10/23 01:27:59;;;;;;;1.52;0.80;;;25.70;30.70;;;;;;5051514;28;20025;-80
2023/10/23 01:30:26;;;;;;;3.25;1.02;;;25.80;31.10;;;;;;5052131;28;20057;-80
2023/10/23 01:32:53;;;;;;;3.88;0.80;;;25.90;30.50;;;;;;5050380;28;20068;-82
2023/10/23 01:35:21;;;;;;;1.85;0.60;;;26.00;30.20;;;;;;5054915;28;20021;-81
2023/10/23 01:37:48;;;;;;;3.42;0.70;;;26.20;30.90;;;;;;5052800;28;20539;-75
2023/10/23 01:40:16;;;;;;;1.13;0.70;;;26.30;29.00;;;;;;5054722;28;20078;-77
2023/10/23 01:42:46;;;;;;;2.83;1.10;;;26.30;30.20;;;;;;5054587;28;20542;-76
2023/10/23 01:45:14;;;;;;;3.33;0.93;;;26.40;29.50;;;;;;5054365;28;20397;-76
2023/10/23 01:47:41;;;;;;;2.78;1.00;;;26.30;29.00;;;;;;5054583;28;20037;-76
2023/10/23 01:50:09;;;;;;;4.05;0.77;;;26.30;28.50;;;;;;5053074;28;20044;-77
2023/10/23 01:52:37;;;;;;;6.32;1.10;;;26.30;29.00;;;;;;5035246;28;20028;-77
2023/10/23 01:55:05;;;;;;;2.80;1.00;;;26.30;29.00;;;;;;5034573;28;20483;-77
2023/10/23 01:57:32;;;;;;;2.78;1.00;;;26.40;29.50;;;;;;5034739;28;20022;-77
2023/10/23 02:00:04;;;;;;;4.15;0.82;;;26.40;29.80;;;;;;5034570;28;20040;-77
2023/10/23 02:02:33;;;;;;;3.25;0.95;;;26.40;29.40;;;;;;5034403;28;20021;-79
2023/10/23 02:05:00;;;;;;;3.97;0.80;;;26.40;29.10;;;;;;5034864;28;20022;-78
2023/10/23 02:07:28;;;;;;;1.90;1.10;;;26.40;28.80;;;;;;5034171;28;20018;-76
2023/10/23 02:09:56;;;;;;;4.97;1.00;;;26.50;29.10;;;;;;5034147;28;20037;-77
2023/10/23 02:12:25;;;;;;;3.47;1.00;;;26.60;29.10;;;;;;5034552;28;20112;-77
2023/10/23 02:14:53;;;;;;;2.75;0.90;;;26.70;29.20;;;;;;5042851;28;20036;-76
2023/10/23 02:17:21;;;;;;;2.40;1.00;;;26.80;28.40;;;;;;5049406;28;20102;-76
2023/10/23 02:19:48;;;;;;;4.63;1.10;;;26.80;28.70;;;;;;5052868;28;20032;-79
2023/10/23 02:22:18;;;;;;;3.15;0.80;;;26.80;27.50;;;;;;5053549;28;20032;-77
2023/10/23 02:24:46;;;;;;;3.65;1.10;;;26.80;27.80;;;;;;5053724;28;20029;-77
2023/10/23 02:27:15;;;;;;;2.75;1.00;;;26.70;27.50;;;;;;5048549;28;20025;-77
2023/10/23 02:29:42;;;;;;;3.35;0.73;;;26.80;28.00;;;;;;5053472;28;20037;-77
2023/10/23 02:32:10;;;;;;;6.55;0.77;;;26.90;28.40;;;;;;5046781;28;20048;-76
2023/10/23 02:34:37;;;;;;;5.68;1.25;;;27.00;27.60;;;;;;5050420;28;20082;-77
2023/10/23 02:37:05;;;;;;;5.05;0.95;;;27.00;27.00;;;;;;5045894;28;20025;-79
2023/10/23 02:39:33;;;;;;;4.95;0.80;;;27.00;27.20;;;;;;5051994;28;20044;-78
2023/10/23 02:42:01;;;;;;;2.35;0.80;;;27.00;28.00;;;;;;5040649;28;20036;-77
2023/10/23 02:44:28;;;;;;;5.50;0.77;;;27.00;28.00;;;;;;5052632;28;20035;-81
2023/10/23 02:46:59;;;;;;;3.15;0.85;;;27.00;27.30;;;;;;5041929;28;20088;-78
2023/10/23 02:49:27;;;;;;;5.82;0.90;;;27.10;26.30;;;;;;5047632;28;20488;-77
2023/10/23 02:51:54;;;;;;;0.85;0.75;;;27.10;26.90;;;;;;5050056;28;20096;-76
2023/10/23 02:54:21;;;;;;;5.13;0.90;;;27.20;27.00;;;;;;5063949;28;20096;-77
2023/10/23 02:56:50;;;;;;;4.15;0.93;;;27.20;26.20;;;;;;5036212;28;20029;-77
2023/10/23 02:59:17;;;;;;;1.65;0.77;;;27.30;26.80;;;;;;5044180;28;20020;-76
2023/10/23 03:01:45;;;;;;;4.47;1.08;;;27.30;26.40;;;;;;5043377;28;20080;-77
2023/10/23 03:04:12;;;;;;;2.47;1.17;;;27.50;27.60;;;;;;5043195;28;20024;-76
2023/10/23 03:06:40;;;;;;;2.20;0.80;;;27.70;27.80;;;;;;5047523;28;20497;-79
2023/10/23 03:09:07;;;;;;;5.68;0.98;;;27.70;26.60;;;;;;5041988;28;20452;-76
2023/10/23 03:11:36;;;;;;;2.13;0.73;;;27.80;26.10;;;;;;5048433;28;20029;-76
2023/10/23 03:14:03;;;;;;;3.60;0.80;;;27.90;26.60;;;;;;5061447;28;20016;-76
2023/10/23 03:16:31;;;;;;;4.85;1.00;;;28.00;25.20;;;;;;5053693;28;20021;-76
2023/10/23 03:18:58;;;;;;;2.60;0.90;;;28.00;25.70;;;;;;5048678;28;20497;-77
2023/10/23 03:21:25;;;;;;;6.68;0.90;;;28.10;26.90;;;;;;5055698;28;20041;-77
2023/10/23 03:23:53;;;;;;;4.00;0.90;;;28.10;25.90;;;;;;5054792;28;20033;-76
2023/10/23 03:26:20;;;;;;;3.58;1.15;;;28.30;24.90;;;;;;5062869;28;20096;-75
2023/10/23 03:28:51;;;;;;;3.85;1.40;;;28.30;27.70;;;;;;5049257;28;20083;-84
2023/10/23 03:31:19;;;;;;;5.78;1.10;;;28.30;29.00;;;;;;5053434;28;20052;-76
2023/10/23 03:33:46;;;;;;;3.83;1.10;;;28.30;29.10;;;;;;5045886;28;20032;-76
2023/10/23 03:36:14;;;;;;;4.85;1.30;;;28.30;30.50;;;;;;5039350;28;20025;-76
2023/10/23 03:38:41;;;;;;;6.63;1.25;;;28.30;30.80;;;;;;5037058;28;20029;-76
2023/10/23 03:41:09;;;;;;;3.25;1.00;;;28.30;29.90;;;;;;5046196;28;20534;-78
2023/10/23 03:43:36;;;;;;;4.55;1.20;;;28.30;28.90;;;;;;5048872;28;20491;-77
2023/10/23 03:46:06;;;;;;;5.53;1.48;;;28.30;30.90;;;;;;5051848;28;20028;-79
2023/10/23 03:48:37;;;;;;;1.88;1.10;;;28.40;31.30;;;;;;5041604;28;20032;-77
2023/10/23 03:51:05;;;;;;;2.08;1.17;;;28.40;31.70;;;;;;5041492;28;20029;-77
2023/10/23 03:53:33;;;;;;;3.42;1.30;;;28.40;32.20;;;;;;5041067;28;20024;-75
2023/10/23 03:56:00;;;;;;;2.60;1.00;;;28.40;32.00;;;;;;5045492;28;20041;-76
2023/10/23 03:58:28;;;;;;;3.13;1.08;;;28.40;32.00;;;;;;5041895;28;20031;-77
2023/10/23 04:00:55;;;;;;;3.35;1.48;;;28.50;31.90;;;;;;5051826;28;20114;-76
2023/10/23 04:03:22;;;;;;;4.75;1.20;;;28.50;32.00;;;;;;5044866;28;20036;-76
2023/10/23 04:05:51;;;;;;;2.60;1.20;;;28.40;32.50;;;;;;5047546;28;20044;-77
2023/10/23 04:08:19;;;;;;;5.57;1.30;;;28.40;32.30;;;;;;5042573;28;20039;-76
2023/10/23 04:10:49;;;;;;;2.90;1.00;;;28.40;32.70;;;;;;5039788;28;20044;-76
2023/10/23 04:13:17;;;;;;;2.90;1.17;;;28.30;32.50;;;;;;5041242;28;20058;-80
2023/10/23 04:15:59;;;;;;;2.63;1.13;;;28.30;32.20;;;;;;5047268;28;20108;-77
2023/10/23 04:18:28;;;;;;;3.25;1.20;;;28.20;33.50;;;;;;5031392;28;20033;-75
2023/10/23 04:21:05;;;;;;;5.88;1.38;;;28.20;34.40;;;;;;5044707;28;20029;-75
2023/10/23 04:23:33;;;;;;;3.33;1.40;;;28.10;35.30;;;;;;5055504;28;20025;-83
2023/10/23 04:26:01;;;;;;;2.25;1.10;;;28.00;36.50;;;;;;5050457;28;20029;-76
2023/10/23 04:28:29;;;;;;;3.47;1.00;;;27.90;37.10;;;;;;5049477;28;20033;-76
2023/10/23 04:30:56;;;;;;;3.05;1.00;;;27.90;37.40;;;;;;5047662;28;20648;-76
2023/10/23 04:33:25;;;;;;;3.20;1.10;;;27.80;37.30;;;;;;5052349;28;20041;-75
2023/10/23 04:35:53;;;;;;;2.85;1.00;;;27.70;37.70;;;;;;5044122;28;20522;-76
2023/10/23 04:38:21;;;;;;;7.57;1.13;;;27.70;37.80;;;;;;5048151;28;20026;-76
2023/10/23 04:40:50;;;;;;;2.58;0.98;;;27.70;38.10;;;;;;5047356;28;20087;-75
2023/10/23 04:43:18;;;;;;;3.60;0.88;;;27.60;37.00;;;;;;5044392;28;20029;-75
2023/10/23 04:45:45;;;;;;;4.32;1.42;;;27.60;36.70;;;;;;5047470;28;20024;-78
2023/10/23 04:48:13;;;;;;;4.45;1.00;;;27.50;36.90;;;;;;5052025;28;20104;-75
2023/10/23 04:50:41;;;;;;;2.92;0.90;;;27.40;37.60;;;;;;5051390;28;20033;-83
2023/10/23 04:53:11;;;;;;;4.15;0.85;;;27.50;37.70;;;;;;5042023;28;20025;-76
2023/10/23 04:55:42;;;;;;;4.28;0.98;;;27.50;36.70;;;;;;5069454;28;20020;-76
2023/10/23 04:58:10;;;;;;;3.17;0.77;;;27.40;36.40;;;;;;5063651;28;20028;-77
2023/10/23 05:00:38;;;;;;;1.65;0.70;;;27.40;36.50;;;;;;5054041;28;20029;-77
2023/10/23 05:03:07;;;;;;;1.30;0.70;;;27.30;37.00;;;;;;5043246;28;20033;-76
2023/10/23 05:05:35;;;;;;;2.85;1.23;;;27.30;37.40;;;;;;5042668;28;20389;-76
2023/10/23 05:08:04;;;;;;;1.75;0.90;;;27.30;37.10;;;;;;5043509;28;20588;-76
2023/10/23 05:10:31;;;;;;;3.47;1.00;;;27.30;37.80;;;;;;5041476;28;20384;-75
2023/10/23 05:12:59;;;;;;;5.95;0.93;;;27.20;38.30;;;;;;5048443;28;20029;-78
2023/10/23 05:15:28;;;;;;;3.92;1.00;;;27.10;38.80;;;;;;5055696;28;20477;-76
2023/10/23 05:17:55;;;;;;;4.90;1.10;;;27.10;38.40;;;;;;5050776;28;20627;-75
2023/10/23 05:20:23;;;;;;;1.63;0.88;;;27.10;38.30;;;;;;5039404;28;20058;-76
2023/10/23 05:22:50;;;;;;;4.18;0.93;;;27.00;38.80;;;;;;5049203;28;20441;-78
2023/10/23 05:25:18;;;;;;;4.50;1.13;;;27.00;38.80;;;;;;5047100;28;20036;-75
2023/10/23 05:27:45;;;;;;;1.58;0.90;;;27.00;38.40;;;;;;5047781;28;20457;-77
2023/10/23 05:30:13;;;;;;;3.38;0.88;;;27.00;38.80;;;;;;5049069;28;20503;-76
2023/10/23 05:32:40;;;;;;;2.60;0.85;;;27.00;39.30;;;;;;5055350;28;20514;-76
2023/10/23 05:35:12;;;;;;;3.08;1.00;;;27.00;38.60;;;;;;5044277;28;20025;-76
2023/10/23 05:37:39;;;;;;;4.50;1.00;;;27.00;38.50;;;;;;5049093;28;20050;-75
2023/10/23 05:40:07;;;;;;;3.78;1.10;;;26.90;37.20;;;;;;5047023;28;20399;-76
2023/10/23 05:42:34;;;;;;;3.10;0.90;;;26.90;37.00;;;;;;5037981;28;20091;-78
2023/10/23 05:45:02;;;;;;;5.32;1.10;;;26.80;37.20;;;;;;5047715;28;20108;-76
2023/10/23 05:47:30;;;;;;;5.55;1.00;;;26.80;36.70;;;;;;5051192;28;20044;-76
2023/10/23 05:49:57;;;;;;;3.75;1.10;;;26.80;36.60;;;;;;5054265;28;20041;-75
2023/10/23 05:52:25;;;;;;;2.72;1.20;;;26.70;37.50;;;;;;5051935;28;20052;-75
2023/10/23 05:54:52;;;;;;;4.05;0.88;;;26.70;38.10;;;;;;5050070;28;20384;-77
2023/10/23 05:57:19;;;;;;;4.65;1.27;;;26.70;38.70;;;;;;5052918;28;20073;-76
2023/10/23 05:59:47;;;;;;;2.67;0.88;;;26.80;39.60;;;;;;5048901;28;20026;-84
2023/10/23 06:02:15;;;;;;;3.53;1.00;;;26.80;39.70;;;;;;5034607;28;20488;-76
2023/10/23 06:04:45;;;;;;;1.85;0.95;;;26.90;40.30;;;;;;5060372;28;20029;-77
2023/10/23 06:07:12;;;;;;;2.88;1.20;;;26.90;40.40;;;;;;5064789;28;20029;-77
2023/10/23 06:09:40;;;;;;;3.47;0.75;;;27.00;40.30;;;;;;5049978;28;20388;-77
2023/10/23 06:12:09;;;;;;;3.03;0.93;;;27.00;40.70;;;;;;5052831;28;20029;-75
2023/10/23 06:14:37;;;;;;;4.35;1.02;;;27.00;41.00;;;;;;5052723;28;20028;-77
2023/10/23 06:17:04;;;;;;;2.88;1.08;;;27.00;40.90;;;;;;5052791;28;20046;-76
2023/10/23 06:19:32;;;;;;;4.35;1.25;;;27.00;40.70;;;;;;5037352;28;20033;-77
2023/10/23 06:21:59;;;;;;;1.02;0.75;;;27.00;40.20;;;;;;5064403;28;20093;-77
2023/10/23 06:24:30;;;;;;;3.10;1.10;;;27.00;40.50;;;;;;5062107;28;20036;-77
2023/10/23 06:26:58;;;;;;;3.85;1.10;;;27.10;40.80;;;;;;5045663;28;20432;-77
2023/10/23 06:29:27;;;;;;;5.18;1.10;;;27.10;40.30;;;;;;5037200;28;20037;-82
2023/10/23 06:31:56;;;;;;;2.83;0.98;;;27.00;40.00;;;;;;5050484;28;20021;-85
2023/10/23 06:34:24;;;;;;;5.03;1.10;;;27.00;39.90;;;;;;5048224;28;20052;-80
2023/10/23 06:36:51;;;;;;;2.20;1.00;;;27.00;40.30;;;;;;5048951;28;20021;-77
2023/10/23 06:39:18;;;;;;;1.52;0.85;;;27.00;40.50;;;;;;5036989;28;20048;-87
2023/10/23 06:41:55;;;;;;;2.08;0.90;;;27.00;40.40;;;;;;5042506;28;20021;-82
2023/10/23 06:44:23;;;;;;;1.67;0.90;;;27.00;40.60;;;;;;5052240;28;20029;-83
2023/10/23 06:46:50;;;;;;;4.30;1.33;;;27.10;40.70;;;;;;5040463;28;20432;-83
2023/10/23 06:49:17;;;;;;;2.03;0.85;;;27.20;40.60;;;;;;5038971;28;20029;-85
2023/10/23 06:51:45;;;;;;;1.38;0.98;;;27.20;40.30;;;;;;5038452;28;20021;-83
2023/10/23 06:54:13;;;;;;;4.63;0.85;;;27.20;39.80;;;;;;5051271;28;20029;-84
2023/10/23 06:56:40;;;;;;;2.38;1.13;;;27.20;40.00;;;;;;5047608;28;20025;-85
2023/10/23 06:59:07;;;;;;;2.13;0.85;;;27.20;40.50;;;;;;5037949;28;20025;-85
2023/10/23 07:01:36;;;;;;;5.20;0.90;;;27.10;40.50;;;;;;5041032;28;20116;-86
2023/10/23 07:04:03;;;;;;;3.00;0.90;;;27.00;39.90;;;;;;5049827;28;20052;-84
2023/10/23 07:06:31;;;;;;;3.30;0.90;;;26.80;39.80;;;;;;5039850;28;20040;-85
2023/10/23 07:08:59;;;;;;;4.55;1.20;;;26.70;40.40;;;;;;5053468;28;20115;-86
2023/10/23 07:11:27;;;;;;;3.97;1.20;;;26.50;39.60;;;;;;5049718;28;20021;-85
2023/10/23 07:13:55;;;;;;;2.33;0.93;;;26.30;39.90;;;;;;5047363;28;20621;-81
2023/10/23 07:16:24;;;;;;;3.20;1.00;;;26.00;40.60;;;;;;5056466;28;20029;-81
2023/10/23 07:18:52;;;;;;;2.30;1.08;;;25.90;41.00;;;;;;5058191;28;20069;-85
2023/10/23 07:21:25;;;;;;;3.47;0.90;;;25.60;40.40;;;;;;5043378;28;20033;-86
2023/10/23 07:23:53;;;;;;;6.30;1.88;;;25.50;41.30;;;;;;5036806;28;20535;-78
2023/10/23 07:26:21;;;;;;;2.83;1.00;;;25.30;42.00;;;;;;5041566;28;20472;-85
2023/10/23 07:28:50;;;;;;;2.20;1.00;;;25.30;42.50;;;;;;5067973;28;20032;-84
2023/10/23 07:31:18;;;;;;;3.50;0.90;;;25.20;42.90;;;;;;5051303;28;20384;-79
2023/10/23 07:33:45;;;;;;;3.42;0.93;;;25.10;42.70;;;;;;5054999;28;20037;-85
2023/10/23 07:36:14;;;;;;;2.78;1.13;;;24.90;42.80;;;;;;5049940;28;20026;-86
2023/10/23 07:38:43;;;;;;;3.00;1.23;;;24.80;42.80;;;;;;5053087;28;20037;-85
2023/10/23 07:41:12;;;;;;;2.17;0.80;;;24.70;43.30;;;;;;5053339;28;20064;-84
2023/10/23 07:43:39;;;;;;;3.25;1.20;;;24.50;44.00;;;;;;5049577;28;20430;-86
2023/10/23 07:46:11;;;;;;;2.53;0.90;;;24.50;44.30;;;;;;5049090;28;20036;-86
2023/10/23 07:48:38;;;;;;;2.58;1.00;;;24.40;44.60;;;;;;5051877;28;20036;-87
2023/10/23 07:51:06;;;;;;;1.65;0.90;;;24.30;45.20;;;;;;5043557;28;20129;-84
2023/10/23 07:53:35;;;;;;;3.30;0.85;;;24.30;45.50;;;;;;5052145;28;20179;-85
2023/10/23 07:56:06;;;;;;;4.05;1.10;;;24.30;45.80;;;;;;5048649;28;20033;-87
2023/10/23 07:58:35;;;;;;;1.38;0.93;;;24.20;45.80;;;;;;5057145;28;20024;-85
2023/10/23 08:01:09;;;;;;;6.32;1.40;;;24.00;46.40;;;;;;5059566;28;20150;-87
2023/10/23 08:03:38;;;;;;;3.47;1.00;;;24.00;46.60;;;;;;5072418;28;20105;-86
2023/10/23 08:06:10;;;;;;;3.42;1.23;;;24.00;47.00;;;;;;5061496;28;20037;-86
2023/10/23 08:08:39;;;;;;;2.42;1.08;;;23.80;47.30;;;;;;5057562;28;20468;-86
2023/10/23 08:11:10;;;;;;;3.17;1.10;;;23.70;47.70;;;;;;5039073;28;20038;-86
2023/10/23 08:13:38;;;;;;;4.60;1.00;;;23.70;48.10;;;;;;5048691;28;20103;-86
2023/10/23 08:16:07;;;;;;;2.80;1.27;;;23.70;48.40;;;;;;5054870;28;20380;-85
2023/10/23 08:18:34;;;;;;;3.42;1.20;;;23.70;48.60;;;;;;5054729;28;20100;-85
2023/10/23 08:21:09;;;;;;;3.83;1.33;;;23.60;48.60;;;;;;5043367;28;20033;-86
2023/10/23 08:23:36;;;;;;;3.87;1.67;;;23.60;49.00;;;;;;5051315;28;20037;-85
2023/10/23 08:26:04;;;;;;;2.55;1.30;;;23.50;49.10;;;;;;5054046;28;20043;-80
2023/10/23 08:28:31;;;;;;;5.35;1.40;;;23.40;49.40;;;;;;5045139;28;20021;-81
2023/10/23 08:30:59;;;;;;;5.90;1.42;;;23.30;49.70;;;;;;5058189;28;20412;-79
2023/10/23 08:33:26;;;;;;;4.93;1.70;;;23.30;50.00;;;;;;5055489;28;20029;-83
2023/10/23 08:35:53;;;;;;;5.45;1.58;;;23.20;50.40;;;;;;5059033;28;20029;-81
2023/10/23 08:38:21;;;;;;;4.03;1.40;;;23.20;50.60;;;;;;5051182;28;20099;-82
2023/10/23 08:40:48;;;;;;;4.35;1.30;;;23.10;51.00;;;;;;5055201;28;20052;-81
2023/10/23 08:43:16;;;;;;;5.05;1.58;;;23.00;51.20;;;;;;5055531;28;20040;-82
2023/10/23 08:45:43;;;;;;;3.53;1.58;;;23.00;51.50;;;;;;5038832;28;20033;-85
2023/10/23 08:48:11;;;;;;;5.75;1.52;;;22.90;51.70;;;;;;5056910;28;20040;-86
2023/10/23 08:50:43;;;;;;;8.05;2.20;;;22.90;52.00;;;;;;5042365;28;20484;-85
2023/10/23 08:53:15;;;;;;;5.93;2.00;;;22.80;52.10;;;;;;5053686;28;20040;-85
2023/10/23 08:55:44;;;;;;;4.03;1.77;;;22.80;52.60;;;;;;5058686;28;20055;-83
2023/10/23 08:58:16;;;;;;;3.70;1.60;;;22.80;52.70;;;;;;5056528;28;20013;-86
2023/10/23 09:00:45;;;;;;;2.75;1.48;;;22.80;52.80;;;;;;5058402;28;20721;-80
2023/10/23 09:03:14;;;;;;;4.18;1.48;;;22.80;53.00;;;;;;5051474;28;20486;-81
2023/10/23 09:05:41;;;;;;;3.58;1.50;;;22.70;53.00;;;;;;5049499;28;20392;-82
2023/10/23 09:08:09;;;;;;;4.25;1.73;;;22.70;53.50;;;;;;5055177;28;20021;-81
2023/10/23 09:11:04;;;;;;;4.95;1.70;;;22.60;53.50;;;;;;5049366;28;20124;-84
2023/10/23 09:13:38;;;;;;;3.42;1.60;;;22.60;53.60;;;;;;5052978;28;20070;-82
2023/10/23 09:16:07;;;;;;;4.65;1.90;;;22.60;53.70;;;;;;5050848;28;20032;-84
2023/10/23 09:18:55;;;;;;;6.65;1.80;;;22.50;54.20;;;;;;5053989;28;20100;-85
2023/10/23 09:21:23;;;;;;;7.43;2.00;;;22.50;54.40;;;;;;5041482;28;20029;-80
2023/10/23 09:23:55;;;;;;;3.40;1.70;;;22.40;54.30;;;;;;5040814;28;20039;-85
2023/10/23 09:26:24;;;;;;;4.72;1.58;;;22.30;54.80;;;;;;5039259;28;20031;-83
2023/10/23 09:28:52;;;;;;;5.47;1.80;;;22.30;54.60;;;;;;5051968;28;20514;-84
2023/10/23 09:31:21;;;;;;;8.52;2.13;;;22.30;54.80;;;;;;5039691;28;20025;-84
2023/10/23 09:33:51;;;;;;;6.38;1.70;;;22.30;55.00;;;;;;5051936;28;20025;-83
2023/10/23 09:36:20;;;;;;;4.65;1.50;;;22.30;55.20;;;;;;5050070;28;20029;-81
2023/10/23 09:38:59;;;;;;;11.77;1.98;;;22.30;55.30;;;;;;5053466;28;20371;-78
2023/10/23 09:41:28;;;;;;;7.65;2.08;;;22.20;55.70;;;;;;5034401;28;20500;-82
2023/10/23 09:43:57;;;;;;;6.18;1.90;;;22.20;55.80;;;;;;5069440;28;20067;-83
2023/10/23 09:46:28;;;;;;;6.43;1.80;;;22.10;55.90;;;;;;5068025;28;20063;-81
2023/10/23 09:49:03;;;;;;;5.55;1.63;;;22.10;56.30;;;;;;5033998;28;20450;-86
2023/10/23 09:51:39;;;;;;;6.10;1.70;;;22.00;56.70;;;;;;5034480;28;20049;-83
2023/10/23 09:54:19;;;;;;;4.95;1.48;;;21.90;57.00;;;;;;5046487;28;20761;-78
2023/10/23 09:56:52;;;;;;;6.18;1.83;;;21.80;57.50;;;;;;5039299;28;20108;-79
2023/10/23 09:59:34;;;;;;;8.38;1.77;;;21.80;58.00;;;;;;5044886;28;20025;-82
2023/10/23 10:02:06;;;;;;;3.90;1.20;;;21.70;58.10;;;;;;5045462;28;20031;-79
2023/10/23 10:05:14;;;;;;;5.80;1.60;;;21.60;58.50;;;;;;5045564;28;20025;-82
2023/10/23 10:07:56;;;;;;;4.32;2.15;;;21.50;58.80;;;;;;5050972;28;20511;-82
2023/10/23 10:10:26;;;;;;;4.15;1.30;;;21.50;59.00;;;;;;5040546;28;20479;-81
2023/10/23 10:12:56;;;;;;;3.28;1.23;;;21.50;58.80;;;;;;5046214;28;20056;-86
2023/10/23 10:15:24;;;;;;;7.30;1.77;;;21.60;59.00;;;;;;5040633;28;20033;-80
2023/10/23 10:17:52;;;;;;;6.60;1.88;;;21.60;59.60;;;;;;5064384;28;20460;-81
2023/10/23 10:20:21;;;;;;;3.80;1.58;;;21.50;59.90;;;;;;5072095;28;20029;-80
2023/10/23 10:23:12;;;;;;;6.75;2.00;;;21.50;60.10;;;;;;5047668;28;20538;-81
2023/10/23 10:25:43;;;;;;;6.30;1.70;;;21.40;60.40;;;;;;5046020;28;20063;-79
2023/10/23 10:28:11;;;;;;;4.72;1.92;;;21.40;60.10;;;;;;5045019;28;20115;-84
2023/10/23 10:30:49;;;;;;;6.20;1.65;;;21.40;59.60;;;;;;5021952;28;20045;-85
2023/10/23 10:33:31;;;;;;;7.57;1.77;;;21.50;60.30;;;;;;5056965;28;20498;-80
2023/10/23 10:36:10;;;;;;;3.42;1.52;;;21.50;60.20;;;;;;5054106;28;20473;-85
2023/10/23 10:38:38;;;;;;;6.40;1.60;;;21.50;60.40;;;;;;5049322;28;20025;-85
2023/10/23 10:41:06;;;;;;;6.90;1.30;;;21.50;60.60;;;;;;5041956;28;20049;-86
2023/10/23 10:43:41;;;;;;;4.75;1.20;;;21.50;60.30;;;;;;5052288;28;20029;-83
2023/10/23 10:46:26;;;;;;;4.78;1.40;;;21.50;60.20;;;;;;5044720;28;20119;-82
2023/10/23 10:48:55;;;;;;;4.05;1.27;;;21.50;59.60;;;;;;5045759;28;20117;-84
2023/10/23 10:51:24;;;;;;;6.03;1.73;;;21.60;60.00;;;;;;5042956;28;20072;-81
2023/10/23 10:54:06;;;;;;;8.10;1.50;;;21.50;60.80;;;;;;5047509;28;20021;-84
2023/10/23 10:56:34;;;;;;;6.43;1.88;;;21.50;61.00;;;;;;5052834;28;20029;-85
2023/10/23 10:59:03;;;;;;;6.70;1.67;;;21.40;61.40;;;;;;5047198;28;20048;-84
2023/10/23 11:01:30;;;;;;;7.93;1.92;;;21.30;61.90;;;;;;5052886;28;20029;-85
2023/10/23 11:03:58;;;;;;;5.97;1.40;;;21.30;62.30;;;;;;5047148;28;20033;-82
2023/10/23 11:06:25;;;;;;;4.55;1.48;;;21.30;61.90;;;;;;5056953;28;20028;-75
2023/10/23 11:08:54;;;;;;;5.82;1.60;;;21.20;62.60;;;;;;5061287;28;20032;-82
2023/10/23 11:11:26;;;;;;;8.20;1.50;;;21.20;62.80;;;;;;5076230;28;20036;-85
2023/10/23 11:14:01;;;;;;;4.65;2.00;;;21.20;63.00;;;;;;5049813;28;20026;-83
2023/10/23 11:16:28;;;;;;;3.35;1.27;;;21.10;62.90;;;;;;5035307;28;20028;-84
2023/10/23 11:18:56;;;;;;;4.78;1.40;;;21.10;62.50;;;;;;5055651;28;20029;-84
2023/10/23 11:21:23;;;;;;;4.57;1.08;;;21.10;62.40;;;;;;5042130;28;20041;-85
2023/10/23 11:23:58;;;;;;;9.43;1.75;;;21.20;62.00;;;;;;5050450;28;20043;-84
2023/10/23 11:26:27;;;;;;;5.50;1.58;;;21.20;61.80;;;;;;5051326;28;20025;-81
2023/10/23 11:28:54;;;;;;;7.35;1.60;;;21.20;62.40;;;;;;5051258;28;20518;-82
2023/10/23 11:31:22;;;;;;;6.03;1.92;;;21.20;62.60;;;;;;5052924;28;20029;-81
2023/10/23 11:33:55;;;;;;;2.35;1.50;;;21.10;62.60;;;;;;5050563;28;20020;-80
2023/10/23 11:36:27;;;;;;;6.25;1.48;;;21.10;63.00;;;;;;5036376;28;20028;-80
2023/10/23 11:38:56;;;;;;;5.10;1.38;;;21.00;63.20;;;;;;5042029;28;20063;-81
2023/10/23 11:41:30;;;;;;;2.53;1.30;;;21.00;62.90;;;;;;5041191;28;20052;-87
2023/10/23 11:44:03;;;;;;;5.85;1.40;;;21.00;62.70;;;;;;5056272;28;20020;-83
2023/10/23 11:46:30;;;;;;;5.80;1.40;;;21.00;62.80;;;;;;5036706;28;20044;-76
2023/10/23 11:49:00;;;;;;;4.22;1.40;;;21.00;63.20;;;;;;5035926;28;20037;-80
2023/10/23 11:51:28;;;;;;;3.45;1.23;;;21.00;62.60;;;;;;5040910;28;20132;-83
2023/10/23 11:54:03;;;;;;;2.33;1.00;;;21.00;62.40;;;;;;5058702;28;20035;-82
2023/10/23 11:56:32;;;;;;;4.10;1.00;;;21.10;62.40;;;;;;5036697;28;20775;-84
2023/10/23 11:59:01;;;;;;;4.15;1.20;;;21.10;62.50;;;;;;5040341;28;20052;-76
2023/10/23 12:01:28;;;;;;;3.88;1.25;;;21.20;62.10;;;;;;5038864;28;21819;-77
2023/10/23 12:03:56;;;;;;;6.55;1.38;;;21.10;62.20;;;;;;5033936;28;20061;-80
2023/10/23 12:06:23;;;;;;;3.25;1.33;;;21.10;62.50;;;;;;5040100;28;20385;-79
2023/10/23 12:08:51;;;;;;;2.88;1.20;;;21.10;62.10;;;;;;5034210;28;20033;-78
2023/10/23 12:11:19;;;;;;;5.13;1.38;;;21.10;62.20;;;;;;5041683;28;20116;-79
2023/10/23 12:13:46;;;;;;;2.95;1.00;;;21.10;62.00;;;;;;5048879;28;20021;-86
2023/10/23 12:16:14;;;;;;;7.95;1.17;;;21.20;61.80;;;;;;5047297;28;21361;-85
2023/10/23 12:18:42;;;;;;;3.65;1.08;;;21.20;62.00;;;;;;5051508;28;20017;-80
2023/10/23 12:21:11;;;;;;;4.25;1.05;;;21.20;62.10;;;;;;5044962;28;21767;-81
2023/10/23 12:23:42;;;;;;;8.10;1.10;;;21.20;61.90;;;;;;5041491;28;20063;-77
2023/10/23 12:26:10;;;;;;;3.08;1.13;;;21.20;61.90;;;;;;5042062;28;20075;-82
2023/10/23 12:28:38;;;;;;;3.40;1.00;;;21.20;61.90;;;;;;5046277;28;20372;-76
2023/10/23 12:31:06;;;;;;;4.15;0.98;;;21.20;61.70;;;;;;5041986;28;20037;-83
2023/10/23 12:33:34;;;;;;;2.20;0.85;;;21.10;61.40;;;;;;5046425;28;20025;-77
2023/10/23 12:36:03;;;;;;;7.13;0.85;;;21.20;61.40;;;;;;5048069;28;20049;-77
2023/10/23 12:38:31;;;;;;;5.00;1.35;;;21.20;61.60;;;;;;5042253;28;20029;-84
2023/10/23 12:40:59;;;;;;;3.95;1.25;;;21.20;61.50;;;;;;5053912;28;20063;-83
2023/10/23 12:43:27;;;;;;;4.50;1.02;;;21.20;61.40;;;;;;5067225;28;20028;-84
2023/10/23 12:45:57;;;;;;;4.38;0.90;;;21.20;61.40;;;;;;5052598;28;20119;-80
2023/10/23 12:48:24;;;;;;;4.65;1.00;;;21.20;61.50;;;;;;5051033;28;20025;-82
2023/10/23 12:50:52;;;;;;;1.83;0.85;;;21.20;61.20;;;;;;5047037;28;20051;-77
2023/10/23 12:53:19;;;;;;;3.13;1.13;;;21.20;61.10;;;;;;5069118;28;20048;-80
2023/10/23 12:55:47;;;;;;;2.63;0.80;;;21.20;61.30;;;;;;5056853;28;20427;-85
2023/10/23 12:58:15;;;;;;;3.08;0.80;;;21.10;61.20;;;;;;5054075;28;20507;-84